createdAt,value
2019-05-16T00:00:16.204Z,6.20
2019-05-16T00:05:23.889Z,6.25
2019-05-16T00:10:28.490Z,6.00
2019-05-16T00:15:33.445Z,6.12
2019-05-16T00:20:39.601Z,6.60
2019-05-16T00:25:47.704Z,6.62
2019-05-16T00:30:53.621Z,6.92
2019-05-16T00:36:05.664Z,6.70
2019-05-16T00:41:10.741Z,6.33
2019-05-16T00:46:15.613Z,6.40
2019-05-16T00:51:20.304Z,6.45
2019-05-16T00:56:26.281Z,7.00
2019-05-16T01:01:34.285Z,6.60
2019-05-16T01:06:38.977Z,6.70
2019-05-16T01:11:44.276Z,7.20
2019-05-16T01:16:48.923Z,7.22
2019-05-16T01:21:53.695Z,7.53
2019-05-16T01:26:58.186Z,7.50
2019-05-16T01:32:02.576Z,7.72
2019-05-16T01:37:08.317Z,8.03
2019-05-16T01:42:14.254Z,7.70
2019-05-16T01:47:18.858Z,7.47
2019-05-16T01:52:23.536Z,7.90
2019-05-16T01:57:28.301Z,7.85
2019-05-16T02:02:33.425Z,8.35
2019-05-16T02:07:44.699Z,8.70
2019-05-16T02:12:49.254Z,8.38
2019-05-16T02:17:53.769Z,8.50
2019-05-16T02:22:59.749Z,8.10
2019-05-16T02:28:04.396Z,9.03
2019-05-16T02:33:11.639Z,9.25
2019-05-16T02:38:16.680Z,9.23
2019-05-16T02:43:26.096Z,9.80
2019-05-16T02:48:31.732Z,9.15
2019-05-16T02:53:34.813Z,9.65
2019-05-16T02:58:44.198Z,9.78
2019-05-16T03:03:45.687Z,10.13
2019-05-16T03:08:50.763Z,10.72
2019-05-16T03:13:56.916Z,10.38
2019-05-16T03:19:05.454Z,10.98
2019-05-16T03:24:11.538Z,10.78
2019-05-16T03:29:17.803Z,11.57
2019-05-16T03:34:25.196Z,10.93
2019-05-16T03:39:31.339Z,11.43
2019-05-16T03:44:36.073Z,11.88
2019-05-16T03:49:43.384Z,11.45
2019-05-16T03:54:50.548Z,11.38
2019-05-16T03:59:55.849Z,12.37
2019-05-16T04:05:01.675Z,11.48
2019-05-16T04:10:11.482Z,11.48
2019-05-16T04:15:16.374Z,11.95
2019-05-16T04:20:21.688Z,11.83
2019-05-16T04:25:27.265Z,12.58
2019-05-16T04:30:34.628Z,11.88
2019-05-16T04:35:41.159Z,12.05
2019-05-16T04:40:45.680Z,11.75
2019-05-16T04:45:52.224Z,11.93
2019-05-16T04:51:01.012Z,11.30
2019-05-16T04:56:04.144Z,10.43
2019-05-16T05:01:11.698Z,10.50
2019-05-16T05:06:26.707Z,10.25
2019-05-16T05:11:33.145Z,9.75
2019-05-16T05:16:37.682Z,9.60
2019-05-16T05:22:01.663Z,9.40
2019-05-16T05:27:06.130Z,9.93
2019-05-16T05:32:14.319Z,10.18
2019-05-16T05:37:20.426Z,10.13
2019-05-16T05:42:24.771Z,9.03
2019-05-16T05:47:30.713Z,9.30
2019-05-16T05:52:35.752Z,8.78
2019-05-16T05:57:40.707Z,8.90
2019-05-16T06:02:46.931Z,6.97
2019-05-16T06:07:51.319Z,6.85
2019-05-16T06:12:55.724Z,6.75
2019-05-16T06:18:00.382Z,6.53
2019-05-16T06:28:10.440Z,5.42
2019-05-16T06:33:14.453Z,5.67
2019-05-16T06:38:21.092Z,5.42
2019-05-16T06:43:25.809Z,5.00
2019-05-16T06:48:30.537Z,5.00
2019-05-16T06:53:35.159Z,4.53
2019-05-16T06:58:47.613Z,4.05
2019-05-16T07:03:45.647Z,4.05
2019-05-16T07:08:50.768Z,4.17
2019-05-16T07:13:55.490Z,4.55
2019-05-16T07:19:00.817Z,4.53
2019-05-16T07:24:05.588Z,3.87
2019-05-16T07:29:10.978Z,4.00
2019-05-16T07:34:15.690Z,3.77
2019-05-16T07:39:20.161Z,4.10
2019-05-16T07:49:27.335Z,4.03
2019-05-16T07:54:34.641Z,3.80
2019-05-16T07:59:37.918Z,3.90
2019-05-16T08:04:42.504Z,4.17
2019-05-16T08:09:46.902Z,4.67
2019-05-16T08:14:51.369Z,4.42
2019-05-16T08:19:55.791Z,4.33
2019-05-16T08:25:00.408Z,4.37
2019-05-16T08:30:07.422Z,3.55
2019-05-16T08:35:12.284Z,4.00
2019-05-16T08:40:21.057Z,3.33
2019-05-16T08:45:23.473Z,3.45
2019-05-16T08:50:27.859Z,4.00
2019-05-16T08:55:32.253Z,4.05
2019-05-16T09:00:36.621Z,4.10
2019-05-16T09:05:42.954Z,4.05
2019-05-16T09:10:59.067Z,3.72
2019-05-16T09:16:04.420Z,3.40
2019-05-16T09:21:08.812Z,7.78
2019-05-16T09:26:16.183Z,4.28
2019-05-16T09:31:19.365Z,4.75
2019-05-16T09:36:23.772Z,3.92
2019-05-16T09:41:46.348Z,3.80
2019-05-16T09:46:34.504Z,3.77
2019-05-16T09:51:39.223Z,3.50
2019-05-16T09:56:43.709Z,3.02
2019-05-16T10:01:48.307Z,3.60
2019-05-16T10:06:52.724Z,3.25
2019-05-16T10:12:08.077Z,3.00
2019-05-16T10:17:03.886Z,3.50
2019-05-16T10:22:08.338Z,3.70
2019-05-16T10:27:12.993Z,3.50
2019-05-16T10:32:17.445Z,3.50
2019-05-16T10:37:21.838Z,3.33
2019-05-16T10:42:28.958Z,3.40
2019-05-16T10:47:33.225Z,3.58
2019-05-16T10:52:37.831Z,3.10
2019-05-16T10:57:42.456Z,3.40
2019-05-16T11:02:46.984Z,3.95
2019-05-16T11:07:53.350Z,3.60
2019-05-16T11:12:59.735Z,3.58
2019-05-16T11:18:03.812Z,3.95
2019-05-16T11:23:09.501Z,3.75
2019-05-16T11:28:13.908Z,4.20
2019-05-16T11:33:18.295Z,4.33
2019-05-16T11:38:22.736Z,4.10
2019-05-16T11:43:27.840Z,4.12
2019-05-16T11:48:32.430Z,4.12
2019-05-16T11:53:37.846Z,3.98
2019-05-16T11:58:42.862Z,4.60
2019-05-16T12:03:47.240Z,4.47
2019-05-16T12:08:52.172Z,4.50
2019-05-16T12:13:56.813Z,4.40
2019-05-16T12:19:01.338Z,4.60
2019-05-16T12:24:07.451Z,4.85
2019-05-16T12:29:12.087Z,5.08
2019-05-16T12:34:16.484Z,5.60
2019-05-16T12:39:20.940Z,4.80
2019-05-16T12:44:26.893Z,5.17
2019-05-16T12:49:31.624Z,4.60
2019-05-16T12:54:37.052Z,4.53
2019-05-16T12:59:49.204Z,4.37
2019-05-16T13:04:48.069Z,4.78
2019-05-16T13:09:52.530Z,4.80
2019-05-16T13:14:56.905Z,5.00
2019-05-16T13:20:01.559Z,5.12
2019-05-16T13:25:08.203Z,5.25
2019-05-16T13:30:13.676Z,5.22
2019-05-16T13:35:18.290Z,5.45
2019-05-16T13:40:22.839Z,5.35
2019-05-16T13:45:27.537Z,5.58
2019-05-16T13:50:36.541Z,5.72
2019-05-16T13:55:40.921Z,5.83
2019-05-16T14:00:48.083Z,5.72
2019-05-16T14:05:51.779Z,5.45
2019-05-16T14:11:01.755Z,5.97
2019-05-16T14:16:02.273Z,5.95
2019-05-16T14:21:06.966Z,5.97
2019-05-16T14:26:11.750Z,6.03
2019-05-16T14:31:17.429Z,6.25
2019-05-16T14:36:22.064Z,5.55
2019-05-16T14:41:27.930Z,5.70
2019-05-16T14:46:32.501Z,5.28
2019-05-16T14:51:38.598Z,5.22
2019-05-16T14:56:47.319Z,5.78
2019-05-16T15:01:50.499Z,5.42
2019-05-16T15:06:57.210Z,5.35
2019-05-16T15:12:01.064Z,5.50
2019-05-16T15:17:06.991Z,6.05
2019-05-16T15:22:13.124Z,5.40
2019-05-16T15:27:17.484Z,5.90
2019-05-16T15:32:21.898Z,5.50
2019-05-16T15:37:27.381Z,6.12
2019-05-16T15:42:31.952Z,6.15
2019-05-16T15:47:37.743Z,6.17
2019-05-16T15:52:43.558Z,7.72
2019-05-16T15:57:47.946Z,7.05
2019-05-16T16:02:53.774Z,6.33
2019-05-16T16:07:58.327Z,6.15
2019-05-16T16:13:02.849Z,6.33
2019-05-16T16:18:09.103Z,5.72
2019-05-16T16:23:13.842Z,6.58
2019-05-16T16:28:18.296Z,6.22
2019-05-16T16:33:29.087Z,6.00
2019-05-16T16:38:28.909Z,5.92
2019-05-16T16:43:33.368Z,5.80
2019-05-16T16:48:37.835Z,5.50
2019-05-16T16:53:42.460Z,6.08
2019-05-16T16:58:46.971Z,12.80
2019-05-16T17:03:54.549Z,6.03
2019-05-16T17:08:57.700Z,6.03
2019-05-16T17:14:02.171Z,6.10
2019-05-16T17:19:07.674Z,6.40
2019-05-16T17:24:12.339Z,6.90
2019-05-16T17:29:17.146Z,6.25
2019-05-16T17:34:21.798Z,6.92
2019-05-16T17:39:27.479Z,5.80
2019-05-16T17:44:38.387Z,6.15
2019-05-16T17:49:42.965Z,5.53
2019-05-16T17:54:47.466Z,4.90
2019-05-16T17:59:51.859Z,5.30
2019-05-16T18:04:56.755Z,4.75
2019-05-16T18:10:01.315Z,6.72
2019-05-16T18:15:08.574Z,8.00
2019-05-16T18:20:13.410Z,6.25
2019-05-16T18:25:18.038Z,5.30
2019-05-16T18:30:27.112Z,5.35
2019-05-16T18:35:31.654Z,8.85
2019-05-16T18:40:36.769Z,5.33
2019-05-16T18:45:41.692Z,6.65
2019-05-16T18:50:47.722Z,5.50
2019-05-16T18:55:52.431Z,6.03
2019-05-16T19:00:57.042Z,5.37
2019-05-16T19:06:03.050Z,5.25
2019-05-16T19:11:07.801Z,7.20
2019-05-16T19:16:13.304Z,8.90
2019-05-16T19:21:19.175Z,8.00
2019-05-16T19:26:31.706Z,10.58
2019-05-16T19:31:50.235Z,8.67
2019-05-16T19:37:02.036Z,8.30
2019-05-16T19:42:17.124Z,7.83
2019-05-16T19:47:34.997Z,7.55
2019-05-16T19:52:47.183Z,8.35
2019-05-16T19:57:59.527Z,9.08
2019-05-16T20:03:07.774Z,8.45
2019-05-16T20:08:13.781Z,8.58
2019-05-16T20:13:20.220Z,8.78
2019-05-16T20:18:31.497Z,9.25
2019-05-16T20:23:39.906Z,8.55
2019-05-16T20:28:47.485Z,8.00
2019-05-16T20:34:00.691Z,8.20
2019-05-16T20:44:28.244Z,9.10
2019-05-16T20:55:17.528Z,8.28
2019-05-16T21:00:26.825Z,8.35
2019-05-16T21:05:32.771Z,8.10
2019-05-16T21:10:43.121Z,8.28
2019-05-16T21:15:51.743Z,8.25
2019-05-16T21:20:57.465Z,9.03
2019-05-16T21:26:05.907Z,9.30
2019-05-16T21:31:10.802Z,10.82
2019-05-16T21:36:16.103Z,9.98
2019-05-16T21:41:31.241Z,9.85
2019-05-16T21:46:40.194Z,9.90
2019-05-16T21:51:46.601Z,10.03
2019-05-16T21:56:51.227Z,13.68
2019-05-16T22:01:57.812Z,11.08
2019-05-16T22:07:02.867Z,10.82
2019-05-16T22:12:07.739Z,10.98
2019-05-16T22:17:28.641Z,14.25
2019-05-16T22:22:29.247Z,11.90
2019-05-16T22:27:31.113Z,12.25
2019-05-16T22:32:38.134Z,13.45
2019-05-16T22:37:52.209Z,12.40
2019-05-16T22:42:51.610Z,12.82
2019-05-16T22:47:57.064Z,12.68
2019-05-16T22:53:02.381Z,13.22
2019-05-16T22:58:09.847Z,16.27
2019-05-16T23:03:14.536Z,14.98
2019-05-16T23:08:23.796Z,16.85
2019-05-16T23:13:28.528Z,19.48
2019-05-16T23:18:33.378Z,16.15
2019-05-16T23:23:39.570Z,15.55
2019-05-16T23:28:47.443Z,15.23
2019-05-16T23:33:52.087Z,14.10
2019-05-16T23:38:57.385Z,14.10
2019-05-16T23:44:04.067Z,14.95
2019-05-16T23:54:11.421Z,14.85
2019-05-16T23:59:17.221Z,14.55
